Terminal Aerodrome Forecast
Issued by NWS

Home | Current Version | Previous Version | Text Only | Print | Product List | Glossary On
Versions: 1 2 3 4 5 6 7 8 9 10 11 12 13 14 15 16 17 18 19
000
FTUS41 KILN 272102 AAA
TAFLUK
TAF AMD
KLUK 272102Z 2721/2818 16005KT P6SM SCT015 OVC060
      TEMPO 2721/2722 BKN015
     FM280200 VRB02KT P6SM FEW045 BKN150
     FM281100 17006KT P6SM VCSH OVC025
     FM281500 18008KT 5SM -SHRA OVC012=

USA.gov is the U.S. government's official web portal to all federal, state and local government web resources and services.